Time;durP1;ratioP1;P1;durP2;ratioP2;P2;SDS_P1;SDS_P2;PMS_P1;PMS_P2;Temp;Humidity;BMP_temperature;BMP_pressure;BME280_temperature;BME280_humidity;BME280_pressure;Samples;Min_cycle;Max_cycle;Signal;HPM_P1;HPM_P2
2021/09/24 00:01:05;;;;;;;;;10.00;10.00;;;;;21.98;47.29;101517.13;5078802;27;45334;-56
2021/09/24 00:03:31;;;;;;;;;8.50;8.25;;;;;21.97;47.22;101507.50;5078743;27;46228;-57
2021/09/24 00:05:57;;;;;;;;;11.00;10.00;;;;;21.97;47.35;101515.41;5077822;27;45837;-57
2021/09/24 00:08:22;;;;;;;;;10.00;10.00;;;;;21.97;47.34;101520.69;5078893;27;45291;-57
2021/09/24 00:10:48;;;;;;;;;11.00;10.75;;;;;21.97;47.47;101520.69;5079230;27;45444;-58
2021/09/24 00:13:13;;;;;;;;;11.25;11.25;;;;;21.97;47.20;101520.69;5078563;27;46416;-55
2021/09/24 00:15:39;;;;;;;;;11.00;10.00;;;;;21.96;47.20;101509.25;5078559;28;45233;-57
2021/09/24 00:18:04;;;;;;;;;9.00;9.00;;;;;21.95;47.35;101506.72;5078710;27;45248;-56
2021/09/24 00:20:30;;;;;;;;;9.00;9.00;;;;;21.94;47.23;101505.84;5078768;27;45208;-57
2021/09/24 00:22:56;;;;;;;;;12.25;11.25;;;;;21.95;47.24;101506.72;5078451;27;46454;-56
2021/09/24 00:25:21;;;;;;;;;11.00;10.00;;;;;21.93;47.48;101505.00;5078769;27;45369;-56
2021/09/24 00:27:46;;;;;;;;;13.00;12.50;;;;;21.92;47.06;101505.94;5078618;27;45643;-56
2021/09/24 00:30:13;;;;;;;;;10.75;10.75;;;;;21.91;47.53;101501.56;5078653;27;45655;-57
2021/09/24 00:32:38;;;;;;;;;10.75;10.75;;;;;21.91;47.45;101506.84;5078157;27;46578;-56
2021/09/24 00:35:04;;;;;;;;;15.00;12.50;;;;;21.90;47.54;101499.88;5078274;27;45400;-58
2021/09/24 00:37:29;;;;;;;;;12.75;11.00;;;;;21.87;47.41;101494.75;5078389;27;45322;-59
2021/09/24 00:39:55;;;;;;;;;13.00;10.75;;;;;21.86;47.31;101487.78;5078427;27;45352;-56
2021/09/24 00:42:20;;;;;;;;;11.00;10.25;;;;;21.87;47.43;101493.91;5078369;27;45519;-60
2021/09/24 00:44:51;;;;;;;;;10.75;9.75;;;;;21.87;47.33;101488.63;5078028;27;45286;-59
2021/09/24 00:47:19;;;;;;;;;12.75;12.25;;;;;21.85;47.35;101486.06;5078186;27;45398;-56
2021/09/24 00:49:46;;;;;;;;;13.00;9.25;;;;;21.85;47.57;101485.19;5078348;27;45418;-57
2021/09/24 00:52:12;;;;;;;;;11.75;10.25;;;;;21.84;47.49;101484.34;5077890;27;46578;-59
2021/09/24 00:54:39;;;;;;;;;9.25;9.25;;;;;21.84;47.88;101484.34;5077960;27;45343;-57
2021/09/24 00:57:05;;;;;;;;;12.00;12.00;;;;;21.82;47.59;101480.94;5077901;27;45409;-57
2021/09/24 00:59:30;;;;;;;;;11.25;10.25;;;;;21.82;48.29;101475.66;5077801;27;45171;-58
2021/09/24 01:01:57;;;;;;;;;11.00;11.00;;;;;21.81;47.59;101465.19;5077793;27;45454;-60
2021/09/24 01:04:23;;;;;;;;;10.00;10.00;;;;;21.81;47.60;101467.84;5078003;27;45743;-59
2021/09/24 01:06:50;;;;;;;;;12.25;9.25;;;;;21.78;47.84;101464.41;5077813;27;45369;-56
2021/09/24 01:09:16;;;;;;;;;13.00;11.00;;;;;21.78;48.15;101468.81;5077906;27;45329;-58
2021/09/24 01:11:42;;;;;;;;;12.00;10.00;;;;;21.76;47.61;101461.00;5077608;27;45435;-57
2021/09/24 01:14:08;;;;;;;;;10.00;9.00;;;;;21.76;48.13;101468.91;5077480;27;45940;-57
2021/09/24 01:16:33;;;;;;;;;9.50;9.50;;;;;21.76;47.83;101465.44;5077600;27;45342;-57
2021/09/24 01:18:59;;;;;;;;;8.00;8.00;;;;;21.75;47.88;101464.56;5077891;27;45560;-56
2021/09/24 01:21:25;;;;;;;;;9.50;9.50;;;;;21.75;47.88;101464.56;5077704;27;46420;-57
2021/09/24 01:23:51;;;;;;;;;10.00;10.00;;;;;21.75;47.82;101455.81;5077894;27;45373;-56
2021/09/24 01:26:16;;;;;;;;;13.50;11.00;;;;;21.75;47.90;101463.72;5077618;27;45247;-57
2021/09/24 01:28:45;;;;;;;;;6.50;6.00;;;;;21.74;48.27;101462.84;5077784;28;45164;-56
2021/09/24 01:31:12;;;;;;;;;9.00;9.00;;;;;21.73;48.27;101461.13;5077255;27;45534;-57
2021/09/24 01:33:46;;;;;;;;;9.75;9.75;;;;;21.73;48.35;101460.31;5077348;27;45414;-58
2021/09/24 01:36:12;;;;;;;;;8.75;8.50;;;;;21.73;48.31;101460.31;5077558;27;45345;-59
2021/09/24 01:38:38;;;;;;;;;7.50;7.50;;;;;21.71;48.42;101464.78;5077572;27;45384;-58
2021/09/24 01:41:04;;;;;;;;;9.00;9.00;;;;;21.70;48.46;101468.34;5092749;27;47407;-59
2021/09/24 01:43:31;;;;;;;;;7.75;7.75;;;;;21.69;48.24;101464.88;5093052;27;45291;-56
2021/09/24 01:45:56;;;;;;;;;7.25;7.00;;;;;21.70;48.34;101461.31;5075896;28;45401;-57
2021/09/24 01:48:22;;;;;;;;;6.00;6.00;;;;;21.70;48.44;101453.41;5077854;27;45295;-58
2021/09/24 01:50:47;;;;;;;;;9.00;7.00;;;;;21.69;48.20;101451.69;5077102;27;45364;-59
2021/09/24 01:53:12;;;;;;;;;6.75;5.25;;;;;21.69;48.77;101450.81;5077133;27;45265;-59
2021/09/24 01:55:38;;;;;;;;;8.75;7.75;;;;;21.69;48.53;101453.47;5077179;27;45330;-58
2021/09/24 01:58:03;;;;;;;;;9.00;6.00;;;;;21.69;48.15;101454.31;5077365;27;45500;-57
2021/09/24 02:00:29;;;;;;;;;10.00;7.50;;;;;21.70;48.46;101457.81;5076796;27;45509;-56
2021/09/24 02:02:54;;;;;;;;;7.25;7.25;;;;;21.69;48.17;101459.59;5077275;27;45413;-57
2021/09/24 02:05:19;;;;;;;;;7.00;5.50;;;;;21.69;48.50;101459.59;5092659;27;45391;-59
2021/09/24 02:07:44;;;;;;;;;6.75;6.75;;;;;21.70;48.73;101466.59;5077297;27;45322;-60
2021/09/24 02:10:10;;;;;;;;;5.25;5.25;;;;;21.71;48.57;101464.78;5076588;27;46301;-57
2021/09/24 02:12:36;;;;;;;;;4.50;4.50;;;;;21.69;48.38;101467.53;5076774;27;45409;-56
2021/09/24 02:15:02;;;;;;;;;6.25;6.25;;;;;21.70;48.45;101471.00;5077054;27;45448;-57
2021/09/24 02:17:27;;;;;;;;;4.50;4.50;;;;;21.69;48.57;101464.00;5077374;27;45423;-56
2021/09/24 02:19:53;;;;;;;;;5.00;5.00;;;;;21.69;48.67;101470.16;5076979;27;45352;-56
2021/09/24 02:22:18;;;;;;;;;5.50;5.50;;;;;21.69;48.78;101462.25;5076716;27;45447;-60
2021/09/24 02:24:44;;;;;;;;;5.00;5.00;;;;;21.69;48.87;101461.38;5076845;27;45219;-58
2021/09/24 02:27:09;;;;;;;;;5.50;5.00;;;;;21.68;48.55;101460.53;5076875;27;45298;-57
2021/09/24 02:29:34;;;;;;;;;5.00;5.00;;;;;21.70;48.97;101458.69;5091572;27;47228;-58
2021/09/24 02:32:00;;;;;;;;;4.00;4.00;;;;;21.70;48.90;101463.09;5076507;27;45244;-55
2021/09/24 02:34:25;;;;;;;;;5.00;5.00;;;;;21.70;49.02;101458.69;5077041;27;45379;-58
2021/09/24 02:36:50;;;;;;;;;5.00;4.25;;;;;21.68;48.77;101457.91;5076657;27;45386;-60
2021/09/24 02:39:16;;;;;;;;;3.50;3.50;;;;;21.70;48.73;101460.44;5076277;27;46552;-59
2021/09/24 02:41:41;;;;;;;;;3.75;3.75;;;;;21.70;48.63;101457.81;5076371;27;45324;-59
2021/09/24 02:44:07;;;;;;;;;9.25;6.50;;;;;21.70;49.00;101449.88;5076546;27;45220;-60
2021/09/24 02:46:32;;;;;;;;;6.50;4.50;;;;;21.70;49.16;101460.44;5076657;27;45295;-59
2021/09/24 02:48:58;;;;;;;;;4.50;4.50;;;;;21.69;49.00;101451.69;5076611;27;45435;-59
2021/09/24 02:51:24;;;;;;;;;6.00;6.00;;;;;21.68;49.07;101451.75;5076338;27;45373;-59
2021/09/24 02:53:49;;;;;;;;;3.00;3.00;;;;;21.67;49.09;101448.28;5092128;27;45431;-59
2021/09/24 02:56:14;;;;;;;;;6.75;5.00;;;;;21.68;48.98;101449.09;5076488;27;45558;-59
2021/09/24 02:58:40;;;;;;;;;5.25;4.50;;;;;21.68;48.93;101449.09;5076093;27;45379;-56
2021/09/24 03:01:05;;;;;;;;;4.50;3.50;;;;;21.69;48.92;101446.41;5075965;27;45366;-56
2021/09/24 03:03:31;;;;;;;;;4.00;3.00;;;;;21.67;49.04;101445.63;5076437;27;45303;-61
2021/09/24 03:05:56;;;;;;;;;3.50;3.50;;;;;21.68;49.11;101457.91;5092524;27;45330;-60
2021/09/24 03:08:21;;;;;;;;;7.00;5.00;;;;;21.67;48.98;101450.91;5075970;27;46423;-60
2021/09/24 03:10:46;;;;;;;;;3.50;3.50;;;;;21.67;49.28;101456.19;5076091;27;45504;-59
2021/09/24 03:13:12;;;;;;;;;2.75;2.75;;;;;21.66;49.25;101449.19;5076282;27;45381;-55
2021/09/24 03:15:37;;;;;;;;;3.75;3.75;;;;;21.67;49.33;101444.75;5076476;27;45553;-55
2021/09/24 03:18:03;;;;;;;;;5.25;3.50;;;;;21.67;49.12;101447.41;5075981;27;45368;-57
2021/09/24 03:20:29;;;;;;;;;4.00;4.00;;;;;21.67;49.28;101444.75;5076228;27;45445;-56
2021/09/24 03:22:55;;;;;;;;;3.00;2.00;;;;;21.67;48.98;101450.91;5091828;27;45294;-57
2021/09/24 03:25:21;;;;;;;;;3.25;3.00;;;;;21.69;48.91;101445.53;5076226;27;45305;-58
2021/09/24 03:27:47;;;;;;;;;5.00;4.00;;;;;21.66;49.02;101427.25;5075760;28;46555;-55
2021/09/24 03:30:13;;;;;;;;;4.00;4.00;;;;;21.68;49.39;101439.44;5074487;28;45854;-58
2021/09/24 03:32:39;;;;;;;;;3.75;2.50;;;;;21.69;49.32;101432.34;5076017;27;45554;-58
2021/09/24 03:35:05;;;;;;;;;4.00;4.00;;;;;21.68;49.11;101435.91;5076050;27;45575;-56
2021/09/24 03:37:30;;;;;;;;;3.00;3.00;;;;;21.68;49.29;101431.50;5075968;27;45709;-57
2021/09/24 03:39:56;;;;;;;;;4.00;4.00;;;;;21.69;49.54;101435.88;5075555;27;45485;-58
2021/09/24 03:42:21;;;;;;;;;7.00;3.75;;;;;21.69;49.37;101430.59;5079293;27;45361;-58
2021/09/24 03:44:47;;;;;;;;;2.00;2.00;;;;;21.68;49.34;101425.38;5079553;27;45349;-59
2021/09/24 03:47:12;;;;;;;;;3.00;3.00;;;;;21.71;49.47;101425.22;5079061;27;47019;-59
2021/09/24 03:49:37;;;;;;;;;4.50;4.00;;;;;21.72;49.10;101424.28;5079023;27;45387;-60
2021/09/24 03:52:03;;;;;;;;;0.00;0.00;;;;;21.74;49.25;101422.44;5079087;27;45336;-56
2021/09/24 03:54:29;;;;;;;;;2.75;2.75;;;;;21.75;49.40;101429.41;5079437;27;45272;-57
2021/09/24 03:56:56;;;;;;;;;2.25;2.25;;;;;21.75;49.23;101424.97;5078790;27;46703;-58
2021/09/24 03:59:22;;;;;;;;;3.00;3.00;;;;;21.76;49.22;101425.84;5078632;27;45868;-57
2021/09/24 04:01:47;;;;;;;;;4.50;3.75;;;;;21.77;48.99;101424.91;5077608;28;45209;-58
2021/09/24 04:04:13;;;;;;;;;5.00;2.25;;;;;21.77;49.00;101419.66;5079228;27;45201;-56
2021/09/24 04:06:38;;;;;;;;;4.00;3.25;;;;;21.77;49.26;101419.66;5078888;27;46264;-56
2021/09/24 04:09:03;;;;;;;;;2.00;2.00;;;;;21.76;48.94;101416.13;5078680;27;45619;-56
2021/09/24 04:11:29;;;;;;;;;3.25;2.00;;;;;21.78;48.96;101416.03;5079301;27;45357;-56
2021/09/24 04:13:54;;;;;;;;;2.00;2.00;;;;;21.80;48.90;101416.00;5078946;27;45627;-59
2021/09/24 04:16:20;;;;;;;;;3.00;3.00;;;;;21.78;49.01;101410.78;5078538;27;46553;-61
2021/09/24 04:18:46;;;;;;;;;3.00;2.25;;;;;21.81;49.18;101415.91;5078588;27;45432;-61
2021/09/24 04:21:11;;;;;;;;;2.00;2.00;;;;;21.80;49.05;101419.47;5094371;27;45424;-55
2021/09/24 04:23:37;;;;;;;;;2.25;2.25;;;;;21.80;49.53;101419.47;5078914;27;45512;-58
2021/09/24 04:26:03;;;;;;;;;4.50;2.50;;;;;21.81;49.14;101422.97;5078746;27;46569;-52
2021/09/24 04:28:29;;;;;;;;;3.50;2.75;;;;;21.82;48.93;101414.13;5078663;27;45842;-54
2021/09/24 04:30:54;;;;;;;;;3.25;2.00;;;;;21.82;49.25;101417.59;5078759;27;45205;-53
2021/09/24 04:33:19;;;;;;;;;3.50;3.00;;;;;21.82;49.03;101414.97;5078583;27;45241;-55
2021/09/24 04:35:45;;;;;;;;;4.25;3.00;;;;;21.82;49.33;101417.59;5078269;27;46327;-57
2021/09/24 04:38:10;;;;;;;;;3.00;3.00;;;;;21.83;49.16;101423.75;5078363;27;45355;-54
2021/09/24 04:40:35;;;;;;;;;3.00;3.00;;;;;21.83;49.24;101415.84;5078317;27;45493;-53
2021/09/24 04:43:01;;;;;;;;;2.75;2.75;;;;;21.81;49.06;101421.19;5078875;27;45235;-55
2021/09/24 04:45:26;;;;;;;;;2.00;2.00;;;;;21.82;49.25;101416.78;5078187;27;46469;-58
2021/09/24 04:47:52;;;;;;;;;3.00;2.00;;;;;21.84;49.45;101421.03;5078226;27;45257;-54
2021/09/24 04:50:17;;;;;;;;;4.00;2.75;;;;;21.82;49.37;101422.88;5078247;27;45215;-56
2021/09/24 04:52:42;;;;;;;;;3.00;2.00;;;;;21.82;49.56;101428.16;5077908;28;45188;-58
2021/09/24 04:55:09;;;;;;;;;2.50;2.50;;;;;21.83;49.50;101429.03;5078005;27;45333;-58
2021/09/24 04:57:36;;;;;;;;;2.00;2.00;;;;;21.83;49.46;101424.59;5078358;27;45381;-57
2021/09/24 05:00:04;;;;;;;;;3.75;2.25;;;;;21.83;49.15;101424.59;5078170;27;45513;-55
2021/09/24 05:02:29;;;;;;;;;3.00;3.00;;;;;21.83;49.50;101423.75;5078136;27;45357;-57
2021/09/24 05:04:55;;;;;;;;;2.50;2.50;;;;;21.83;49.33;101419.31;5093541;27;47050;-57
2021/09/24 05:07:20;;;;;;;;;2.50;2.50;;;;;21.83;49.55;101424.59;5077804;27;45185;-58
2021/09/24 05:09:45;;;;;;;;;3.00;2.00;;;;;21.82;49.64;101430.81;5078008;27;45195;-56
2021/09/24 05:12:10;;;;;;;;;3.00;2.00;;;;;21.83;49.49;101423.75;5078061;27;45524;-57
2021/09/24 05:14:36;;;;;;;;;2.75;2.75;;;;;21.82;49.70;101419.41;5078077;27;46211;-58
2021/09/24 05:17:01;;;;;;;;;3.00;3.00;;;;;21.82;49.32;101417.59;5077712;27;45326;-56
2021/09/24 05:19:26;;;;;;;;;2.00;2.00;;;;;21.81;49.70;101415.91;5077844;27;45710;-57
2021/09/24 05:21:52;;;;;;;;;2.00;2.00;;;;;21.83;49.13;101407.91;5077894;27;45554;-56
2021/09/24 05:24:17;;;;;;;;;3.00;3.00;;;;;21.81;49.60;101415.91;5077517;27;46075;-55
2021/09/24 05:26:43;;;;;;;;;2.50;2.50;;;;;21.80;49.29;101408.91;5077464;27;45381;-55
2021/09/24 05:29:08;;;;;;;;;3.00;3.00;;;;;21.82;49.69;101420.25;5077663;27;45267;-57
2021/09/24 05:31:33;;;;;;;;;3.00;3.00;;;;;21.82;49.44;101416.78;5077982;27;45562;-55
2021/09/24 05:34:02;;;;;;;;;3.25;3.25;;;;;21.82;49.49;101422.88;5077421;27;45250;-56
2021/09/24 05:36:27;;;;;;;;;3.50;2.50;;;;;21.82;49.30;101412.31;5077340;27;45891;-57
2021/09/24 05:38:52;;;;;;;;;2.50;2.50;;;;;21.80;49.53;101411.56;5077544;27;45291;-56
2021/09/24 05:41:18;;;;;;;;;4.00;2.25;;;;;21.80;49.71;101406.28;5077670;27;45400;-56
2021/09/24 05:43:44;;;;;;;;;3.00;3.00;;;;;21.82;49.74;101400.94;5077291;27;45488;-55
2021/09/24 05:46:10;;;;;;;;;3.50;3.50;;;;;21.81;49.66;101404.50;5077210;27;45271;-55
2021/09/24 05:48:35;;;;;;;;;3.25;3.00;;;;;21.82;49.30;101407.06;5077700;27;45283;-54
2021/09/24 05:51:01;;;;;;;;;4.50;3.00;;;;;21.82;49.65;101403.56;5077386;27;45521;-58
2021/09/24 05:53:26;;;;;;;;;4.00;3.00;;;;;21.79;49.52;101404.56;5076996;27;45522;-56
2021/09/24 05:55:52;;;;;;;;;4.25;4.25;;;;;21.78;49.54;101402.84;5077065;27;45315;-55
2021/09/24 05:58:17;;;;;;;;;4.00;3.00;;;;;21.74;49.92;101396.06;5077182;27;45276;-58
2021/09/24 06:00:42;;;;;;;;;4.00;4.00;;;;;21.74;49.57;101407.44;5077087;27;45552;-55
2021/09/24 06:03:08;;;;;;;;;6.00;3.00;;;;;21.74;49.88;101404.81;5076356;28;47225;-56
2021/09/24 06:05:33;;;;;;;;;4.00;4.00;;;;;21.74;49.57;101402.16;5076980;27;45327;-55
2021/09/24 06:07:59;;;;;;;;;3.25;3.25;;;;;21.74;49.65;101407.44;5077210;27;45500;-54
2021/09/24 06:10:25;;;;;;;;;4.00;4.00;;;;;21.74;49.96;101406.59;5077184;27;45421;-57
2021/09/24 06:12:50;;;;;;;;;5.00;4.50;;;;;21.74;49.77;101414.53;5076691;27;46520;-56
2021/09/24 06:15:21;;;;;;;;;5.00;3.75;;;;;21.74;49.96;101409.25;5076791;28;45307;-56
2021/09/24 06:17:47;;;;;;;;;4.50;4.00;;;;;21.72;49.63;101411.09;5077039;27;45438;-55
2021/09/24 06:20:13;;;;;;;;;4.75;4.75;;;;;21.73;49.87;101415.44;5092761;27;45448;-57
2021/09/24 06:22:39;;;;;;;;;3.25;3.25;;;;;21.73;49.81;101412.81;5076838;27;47514;-56
2021/09/24 06:25:05;;;;;;;;;4.75;4.75;;;;;21.74;50.10;101415.34;5076850;27;45398;-56
2021/09/24 06:27:32;;;;;;;;;6.50;5.25;;;;;21.74;49.65;101406.59;5076732;27;45397;-58
2021/09/24 06:29:58;;;;;;;;;3.00;3.00;;;;;21.74;49.99;101406.59;5076773;27;45507;-56
2021/09/24 06:32:24;;;;;;;;;5.00;5.00;;;;;21.76;49.62;101402.09;5076555;27;45523;-50
2021/09/24 06:34:49;;;;;;;;;4.00;4.00;;;;;21.76;50.37;101404.75;5076519;27;45334;-52
2021/09/24 06:37:15;;;;;;;;;7.25;6.25;;;;;21.75;50.14;101408.31;5076611;27;45374;-50
2021/09/24 06:39:41;;;;;;;;;4.50;4.00;;;;;21.75;50.14;101409.16;5076831;27;45472;-51
2021/09/24 06:42:07;;;;;;;;;4.00;4.00;;;;;21.77;50.25;101411.72;5076550;27;46424;-55
2021/09/24 06:44:33;;;;;;;;;7.00;5.00;;;;;21.78;50.40;101410.78;5076527;27;45794;-51
2021/09/24 06:46:59;;;;;;;;;6.00;5.00;;;;;21.78;50.86;101414.28;5076480;27;45349;-54
2021/09/24 06:49:25;;;;;;;;;5.00;4.75;;;;;21.79;50.63;101409.84;5076652;28;45504;-53
2021/09/24 06:51:52;;;;;;;;;5.00;4.75;;;;;21.81;50.63;101405.34;5076266;27;45485;-52
2021/09/24 06:54:18;;;;;;;;;5.50;4.00;;;;;21.82;50.33;101411.50;5076182;27;45895;-51
2021/09/24 06:56:43;;;;;;;;;6.25;4.25;;;;;21.83;50.69;101416.69;5076412;28;45433;-49
2021/09/24 06:59:09;;;;;;;;;7.00;6.50;;;;;21.83;50.60;101416.69;5076693;27;45397;-48
2021/09/24 07:01:34;;;;;;;;;17.00;16.50;;;;;21.84;50.58;101409.59;5076071;27;45744;-53
2021/09/24 07:03:59;;;;;;;;;62.75;47.75;;;;;21.84;51.04;101412.25;5076147;27;45239;-50
2021/09/24 07:06:25;;;;;;;;;109.00;101.33;;;;;21.85;50.82;101420.09;5076140;27;45292;-48
2021/09/24 07:08:51;;;;;;;;;138.67;131.00;;;;;21.87;50.97;101417.38;5076339;27;45208;-53
2021/09/24 07:11:17;;;;;;;;;205.50;197.00;;;;;21.87;51.28;101420.88;5091565;27;47184;-48
2021/09/24 07:13:42;;;;;;;;;230.75;219.25;;;;;21.88;51.13;101409.34;5076065;27;45576;-49
2021/09/24 07:16:08;;;;;;;;;213.25;204.00;;;;;21.89;51.19;101413.72;5079546;27;45700;-51
2021/09/24 07:18:33;;;;;;;;;237.50;222.75;;;;;21.89;51.21;101416.34;5079569;27;45202;-50
2021/09/24 07:20:58;;;;;;;;;226.67;211.00;;;;;21.90;51.02;101409.31;5079221;27;47291;-48
2021/09/24 07:23:26;;;;;;;;;214.33;204.00;;;;;21.90;51.06;101412.78;5079491;27;45223;-49
2021/09/24 07:25:52;;;;;;;;;193.50;183.25;;;;;21.91;51.31;101417.13;5079553;27;45380;-48
2021/09/24 07:28:18;;;;;;;;;182.50;170.75;;;;;21.90;51.32;101415.41;5079456;27;45557;-53
2021/09/24 07:30:43;;;;;;;;;160.25;151.50;;;;;21.90;51.62;101414.56;5095105;27;46231;-49
2021/09/24 07:33:09;;;;;;;;;153.25;140.75;;;;;21.89;51.39;101418.97;5079401;27;45260;-47
2021/09/24 07:35:35;;;;;;;;;141.25;133.50;;;;;21.91;51.12;101416.28;5079252;27;45296;-55
2021/09/24 07:38:01;;;;;;;;;137.00;128.00;;;;;21.91;51.39;101414.47;5079383;28;45369;-48
2021/09/24 07:40:28;;;;;;;;;120.75;117.00;;;;;21.90;50.97;101410.13;5078985;27;46398;-50
2021/09/24 07:42:54;;;;;;;;;117.75;110.00;;;;;21.91;51.34;101401.28;5079094;28;45243;-48
2021/09/24 07:45:20;;;;;;;;;96.50;94.00;;;;;21.92;51.45;101403.00;5079060;27;45457;-50
2021/09/24 07:47:45;;;;;;;;;107.00;94.00;;;;;21.91;51.38;101401.28;5079161;27;45283;-49
2021/09/24 07:50:11;;;;;;;;;99.33;89.67;;;;;21.90;51.61;101402.22;5079204;27;45371;-48
2021/09/24 07:52:36;;;;;;;;;99.00;91.00;;;;;21.91;51.51;101401.28;5078832;27;45415;-49
2021/09/24 07:55:02;;;;;;;;;88.33;86.33;;;;;21.91;51.53;101401.28;5079123;27;45467;-59
2021/09/24 07:57:28;;;;;;;;;87.75;83.50;;;;;21.92;51.51;101407.44;5078938;27;45302;-52
2021/09/24 07:59:53;;;;;;;;;81.25;76.00;;;;;21.91;51.65;101409.22;5078492;27;46633;-51
2021/09/24 08:02:19;;;;;;;;;75.00;66.50;;;;;21.89;51.60;101411.06;5079043;27;45457;-52
2021/09/24 08:04:44;;;;;;;;;77.75;65.50;;;;;21.90;51.48;101417.22;5079147;27;45349;-50
2021/09/24 08:07:10;;;;;;;;;79.00;68.00;;;;;21.89;51.48;101408.44;5078975;27;45649;-49
2021/09/24 08:09:35;;;;;;;;;66.25;53.00;;;;;21.89;51.57;101418.97;5078529;27;45523;-49
2021/09/24 08:12:01;;;;;;;;;63.50;51.25;;;;;21.90;51.07;101419.84;5078637;27;45304;-52
2021/09/24 08:14:26;;;;;;;;;63.25;49.00;;;;;21.88;51.16;101417.28;5094126;27;45236;-50
2021/09/24 08:16:52;;;;;;;;;59.25;48.75;;;;;21.87;51.29;101426.16;5078862;27;45239;-50
2021/09/24 08:19:17;;;;;;;;;58.00;47.00;;;;;21.88;51.26;101432.28;5078456;27;46119;-51
2021/09/24 08:21:43;;;;;;;;;52.25;41.25;;;;;21.88;51.12;101435.75;5078711;27;45404;-48
2021/09/24 08:24:08;;;;;;;;;53.25;43.75;;;;;21.89;51.05;101434.81;5078622;27;45768;-48
2021/09/24 08:26:34;;;;;;;;;49.25;40.75;;;;;21.89;51.25;101434.81;5077778;27;45357;-55
2021/09/24 08:28:59;;;;;;;;;46.25;38.25;;;;;21.89;51.11;101437.47;5078402;27;46297;-50
2021/09/24 08:31:24;;;;;;;;;43.00;37.25;;;;;21.87;51.20;101436.72;5078249;28;45370;-51
2021/09/24 08:33:50;;;;;;;;;43.00;36.50;;;;;21.87;50.82;101436.72;5078510;27;45294;-48
2021/09/24 08:36:16;;;;;;;;;38.00;33.75;;;;;21.87;51.04;101434.06;5078757;27;45412;-53
2021/09/24 08:38:42;;;;;;;;;42.00;35.75;;;;;21.86;50.75;101434.13;5078284;27;45387;-48
2021/09/24 08:41:07;;;;;;;;;43.75;36.50;;;;;21.86;50.87;101429.72;5078137;28;45519;-48
2021/09/24 08:43:33;;;;;;;;;37.00;33.25;;;;;21.87;51.17;101425.28;5078319;27;45389;-51
2021/09/24 08:45:59;;;;;;;;;35.00;31.25;;;;;21.87;51.17;101423.50;5078364;27;45427;-51
2021/09/24 08:48:24;;;;;;;;;34.00;31.00;;;;;21.88;50.97;101432.28;5078041;27;46140;-52
2021/09/24 08:50:51;;;;;;;;;32.00;30.00;;;;;21.89;50.88;101433.97;5078075;27;45334;-51
2021/09/24 08:53:19;;;;;;;;;38.50;32.00;;;;;21.88;50.69;101433.09;5078532;27;45472;-48
2021/09/24 08:55:45;;;;;;;;;37.00;31.25;;;;;21.88;50.71;101433.09;5078639;27;45422;-54
2021/09/24 08:58:12;;;;;;;;;28.75;26.75;;;;;21.90;50.95;101436.53;5077817;27;46535;-50
2021/09/24 09:00:42;;;;;;;;;25.50;23.25;;;;;21.92;50.70;101439.94;5077657;27;45884;-52
2021/09/24 09:03:10;;;;;;;;;27.50;25.00;;;;;21.91;50.91;101432.13;5077894;27;45227;-52
2021/09/24 09:05:39;;;;;;;;;26.50;23.50;;;;;21.94;50.65;101431.94;5078029;27;45482;-52
2021/09/24 09:08:05;;;;;;;;;25.25;21.25;;;;;21.91;50.71;101432.97;5077597;28;45288;-51
2021/09/24 09:10:40;;;;;;;;;20.75;18.75;;;;;21.96;51.02;101440.63;5077515;27;45240;-52
2021/09/24 09:13:08;;;;;;;;;24.50;20.75;;;;;21.96;50.64;101434.53;5077674;27;45394;-55
2021/09/24 09:15:33;;;;;;;;;20.75;20.00;;;;;21.96;50.60;101434.53;5077927;27;45268;-54
2021/09/24 09:17:59;;;;;;;;;21.75;17.25;;;;;21.91;50.84;101432.13;5077623;27;46122;-52
2021/09/24 09:20:30;;;;;;;;;20.25;18.00;;;;;21.86;50.88;101431.50;5093345;27;45813;-54
2021/09/24 09:22:58;;;;;;;;;17.50;15.25;;;;;21.83;50.78;101429.88;5077713;27;45301;-53
2021/09/24 09:25:25;;;;;;;;;17.50;15.25;;;;;21.80;50.85;101431.81;5077801;27;45446;-50
2021/09/24 09:27:53;;;;;;;;;15.25;15.25;;;;;21.78;50.96;101431.88;5093055;27;47625;-51
2021/09/24 09:30:18;;;;;;;;;13.75;13.75;;;;;21.75;50.74;101434.69;5077685;27;45316;-53
2021/09/24 09:32:58;;;;;;;;;23.00;19.00;;;;;21.71;51.12;101431.38;5077475;28;45259;-54
2021/09/24 09:35:24;;;;;;;;;16.00;14.50;;;;;21.72;50.87;101426.94;5077498;27;45475;-53
2021/09/24 09:37:49;;;;;;;;;11.25;11.25;;;;;21.73;50.89;101437.41;5077377;27;46705;-57
2021/09/24 09:40:16;;;;;;;;;13.25;10.50;;;;;21.73;50.95;101434.75;5077209;27;45523;-51
2021/09/24 09:42:44;;;;;;;;;11.00;10.00;;;;;21.72;50.85;101433.03;5077361;27;45401;-51
2021/09/24 09:45:12;;;;;;;;;13.00;11.50;;;;;21.72;51.17;101421.66;5077588;27;45263;-53
2021/09/24 09:47:40;;;;;;;;;11.50;11.00;;;;;21.74;50.92;101425.91;5092761;27;46368;-52
2021/09/24 09:50:12;;;;;;;;;10.50;8.75;;;;;21.75;51.27;101429.41;5077113;27;45344;-52
2021/09/24 09:52:52;;;;;;;;;12.00;12.00;;;;;21.75;51.06;101424.97;5077216;27;45414;-52
2021/09/24 09:55:20;;;;;;;;;7.00;7.00;;;;;21.76;51.08;101417.94;5077721;28;45386;-51
2021/09/24 09:57:50;;;;;;;;;7.75;5.50;;;;;21.76;51.27;101424.06;5077203;27;46108;-56
2021/09/24 10:00:15;;;;;;;;;13.50;9.25;;;;;21.77;51.16;101425.75;5076643;28;45315;-47
2021/09/24 10:02:41;;;;;;;;;11.75;11.75;;;;;21.80;50.93;101424.75;5077174;28;45358;-47
2021/09/24 10:05:06;;;;;;;;;17.00;11.75;;;;;21.84;50.52;101421.03;5077467;27;45339;-46
2021/09/24 10:07:37;;;;;;;;;13.00;10.25;;;;;21.86;51.21;101418.28;5076572;28;46351;-49
2021/09/24 10:10:03;;;;;;;;;11.25;11.00;;;;;21.88;51.20;101411.16;5076678;27;45931;-48
2021/09/24 10:12:28;;;;;;;;;11.67;11.00;;;;;21.88;51.57;101413.78;5076834;28;45287;-48
2021/09/24 10:14:54;;;;;;;;;13.25;10.75;;;;;21.89;51.34;101413.72;5075675;28;45648;-48
2021/09/24 10:17:21;;;;;;;;;10.75;10.00;;;;;21.92;51.66;101413.56;5076883;27;45230;-52
2021/09/24 10:19:47;;;;;;;;;9.00;9.00;;;;;21.93;51.65;101417.91;5076540;28;45858;-45
2021/09/24 10:22:13;;;;;;;;;10.00;10.00;;;;;21.96;51.48;101408.13;5076751;27;45347;-49
2021/09/24 10:24:42;;;;;;;;;11.00;9.25;;;;;21.97;51.56;101413.31;5075456;28;45635;-48
2021/09/24 10:27:12;;;;;;;;;12.50;10.00;;;;;21.98;51.30;101412.38;5076386;27;46401;-48
2021/09/24 10:29:43;;;;;;;;;14.00;11.00;;;;;21.98;51.34;101407.09;5075121;28;45513;-46
2021/09/24 10:32:18;;;;;;;;;10.00;9.50;;;;;22.01;51.20;101414.00;5092161;27;45361;-47
2021/09/24 10:34:55;;;;;;;;;12.25;10.25;;;;;22.01;51.22;101412.22;5076757;27;45343;-50
2021/09/24 10:37:20;;;;;;;;;12.50;9.75;;;;;22.02;51.14;101405.16;5076689;27;46532;-47
2021/09/24 10:39:48;;;;;;;;;14.75;11.75;;;;;22.04;51.22;101405.94;5074929;28;45441;-46
2021/09/24 10:42:36;;;;;;;;;11.00;10.00;;;;;22.05;51.17;101412.91;5076552;27;45389;-46
2021/09/24 10:45:11;;;;;;;;;7.75;7.75;;;;;22.06;51.30;101414.63;5071008;27;45235;-49
2021/09/24 10:47:48;;;;;;;;;9.25;9.00;;;;;22.07;51.14;101416.34;5076261;28;46571;-49
2021/09/24 10:50:39;;;;;;;;;9.75;8.50;;;;;22.07;51.11;101405.78;5078417;28;45261;-46
2021/09/24 10:53:10;;;;;;;;;11.50;10.75;;;;;22.08;50.95;101407.47;5079917;27;45525;-46
2021/09/24 10:55:37;;;;;;;;;9.25;8.50;;;;;22.08;51.09;101404.84;5080164;27;45566;-50
2021/09/24 10:58:03;;;;;;;;;9.75;9.25;;;;;22.09;51.07;101396.84;5079875;28;45504;-51
2021/09/24 11:00:30;;;;;;;;;7.75;7.00;;;;;22.10;51.28;101400.34;5078420;28;45343;-55
2021/09/24 11:03:09;;;;;;;;;9.00;8.75;;;;;22.11;50.88;101401.19;5079973;28;45225;-53
2021/09/24 11:05:55;;;;;;;;;10.00;10.00;;;;;22.12;50.99;101398.44;5080119;27;45419;-57
2021/09/24 11:08:32;;;;;;;;;8.50;8.25;;;;;22.13;51.10;101396.69;5078576;28;46786;-53
2021/09/24 11:11:28;;;;;;;;;9.00;9.00;;;;;22.12;51.21;101393.16;5079756;27;45463;-53
2021/09/24 11:13:59;;;;;;;;;10.50;9.00;;;;;22.13;51.11;101386.94;5079370;27;45440;-54